Time;durP1;ratioP1;P1;durP2;ratioP2;P2;SDS_P1;SDS_P2;PMS_P1;PMS_P2;Temp;Humidity;BMP_temperature;BMP_pressure;BME280_temperature;BME280_humidity;BME280_pressure;Samples;Min_cycle;Max_cycle;Signal;HPM_P1;HPM_P2
2023/09/01 00:02:21;;;;;;;5.27;2.90;;;22.20;60.10;;;;;;5005545;28;20233;-48
2023/09/01 00:04:47;;;;;;;5.23;3.03;;;22.10;59.70;;;;;;5005495;28;20273;-46
2023/09/01 00:07:12;;;;;;;3.70;2.93;;;22.10;60.00;;;;;;5010433;28;20300;-45
2023/09/01 00:09:38;;;;;;;4.03;3.10;;;22.10;60.20;;;;;;5013023;28;20190;-45
2023/09/01 00:12:04;;;;;;;5.90;3.63;;;22.00;60.00;;;;;;5010174;28;20198;-44
2023/09/01 00:14:30;;;;;;;5.50;3.50;;;22.00;60.30;;;;;;5011080;28;20202;-48
2023/09/01 00:16:55;;;;;;;4.07;2.90;;;22.00;60.10;;;;;;5003617;28;20838;-45
2023/09/01 00:19:23;;;;;;;6.53;2.97;;;21.90;60.40;;;;;;5011519;28;20230;-46
2023/09/01 00:21:49;;;;;;;3.87;3.30;;;21.80;60.60;;;;;;5009088;28;20194;-45
2023/09/01 00:24:15;;;;;;;5.43;3.23;;;21.80;60.50;;;;;;5013724;28;20455;-46
2023/09/01 00:26:40;;;;;;;6.47;3.47;;;21.80;60.20;;;;;;5005417;28;20433;-45
2023/09/01 00:29:06;;;;;;;3.73;3.43;;;21.80;59.60;;;;;;5009886;28;20225;-45
2023/09/01 00:31:33;;;;;;;4.30;2.93;;;21.90;59.90;;;;;;5005957;28;20190;-46
2023/09/01 00:33:59;;;;;;;3.47;3.17;;;22.00;60.00;;;;;;5004720;28;20199;-45
2023/09/01 00:36:25;;;;;;;3.60;2.90;;;22.00;59.50;;;;;;5004230;28;20445;-46
2023/09/01 00:38:50;;;;;;;4.10;3.30;;;22.10;59.30;;;;;;5008933;28;20620;-44
2023/09/01 00:41:16;;;;;;;7.90;3.23;;;22.20;59.20;;;;;;4994185;28;20257;-46
2023/09/01 00:43:41;;;;;;;4.47;2.77;;;22.30;59.00;;;;;;5002896;28;20237;-45
2023/09/01 00:46:07;;;;;;;5.43;2.60;;;22.40;59.00;;;;;;5007170;28;20221;-46
2023/09/01 00:48:33;;;;;;;6.97;2.50;;;22.40;58.80;;;;;;5003211;28;20182;-44
2023/09/01 00:50:58;;;;;;;3.43;3.13;;;22.40;58.60;;;;;;5009410;28;20248;-46
2023/09/01 00:53:25;;;;;;;3.67;2.33;;;22.40;58.70;;;;;;5005953;28;20205;-45
2023/09/01 00:55:53;;;;;;;5.20;2.90;;;22.40;58.70;;;;;;5004341;28;20197;-45
2023/09/01 00:58:19;;;;;;;2.70;2.47;;;22.40;58.70;;;;;;5012513;28;20452;-44
2023/09/01 01:00:44;;;;;;;2.60;2.40;;;22.40;58.80;;;;;;5010962;28;20463;-45
2023/09/01 01:03:11;;;;;;;3.43;2.50;;;22.50;58.70;;;;;;5008816;28;20445;-44
2023/09/01 01:05:47;;;;;;;3.33;2.40;;;22.50;58.90;;;;;;5009559;28;20228;-44
2023/09/01 01:08:25;;;;;;;3.47;2.70;;;22.50;58.90;;;;;;5006460;28;20451;-46
2023/09/01 01:11:09;;;;;;;4.20;2.80;;;22.60;58.70;;;;;;5000968;28;20445;-44
2023/09/01 01:13:39;;;;;;;3.20;2.83;;;22.60;58.70;;;;;;5007362;28;20510;-44
2023/09/01 01:16:06;;;;;;;3.17;2.93;;;22.60;58.90;;;;;;5006401;28;20537;-44
2023/09/01 01:18:35;;;;;;;4.03;3.67;;;22.70;58.70;;;;;;5013203;28;20435;-45
2023/09/01 01:21:11;;;;;;;3.30;2.77;;;22.70;58.40;;;;;;5009301;28;20451;-44
2023/09/01 01:23:37;;;;;;;5.00;3.53;;;22.50;58.30;;;;;;5010183;28;20444;-46
2023/09/01 01:26:05;;;;;;;3.90;2.90;;;22.50;58.40;;;;;;5003509;28;20483;-45
2023/09/01 01:28:30;;;;;;;5.10;3.00;;;22.60;58.40;;;;;;5000621;28;20429;-49
2023/09/01 01:30:56;;;;;;;3.20;2.53;;;22.50;57.70;;;;;;5012615;28;20483;-49
2023/09/01 01:33:35;;;;;;;3.47;2.90;;;22.60;57.70;;;;;;5012393;28;20277;-47
2023/09/01 01:36:12;;;;;;;2.90;2.13;;;22.60;57.50;;;;;;5006961;28;20601;-48
2023/09/01 01:38:40;;;;;;;4.93;2.70;;;22.60;57.50;;;;;;4987338;28;20448;-50
2023/09/01 01:41:19;;;;;;;4.90;2.40;;;22.60;57.60;;;;;;5002258;28;20444;-50
2023/09/01 01:43:49;;;;;;;6.77;2.67;;;22.70;57.80;;;;;;5009465;28;20472;-50
2023/09/01 01:46:15;;;;;;;3.03;2.73;;;22.70;58.00;;;;;;5009202;28;20799;-47
2023/09/01 01:48:41;;;;;;;4.57;2.50;;;22.70;57.80;;;;;;4999558;28;20453;-49
2023/09/01 01:51:06;;;;;;;7.23;2.83;;;22.70;57.70;;;;;;5008165;28;20476;-48
2023/09/01 01:53:34;;;;;;;3.67;2.43;;;22.40;57.80;;;;;;5009070;28;20208;-48
2023/09/01 01:56:00;;;;;;;2.67;2.47;;;22.40;57.80;;;;;;5011285;28;20186;-47
2023/09/01 01:58:27;;;;;;;6.87;3.17;;;22.40;58.10;;;;;;5008680;28;20479;-49
2023/09/01 02:00:52;;;;;;;4.17;3.53;;;22.40;58.30;;;;;;5004327;28;20445;-49
2023/09/01 02:03:18;;;;;;;4.17;2.97;;;22.50;58.60;;;;;;5011400;28;20436;-50
2023/09/01 02:05:43;;;;;;;3.60;3.07;;;22.40;59.10;;;;;;5007443;28;20641;-48
2023/09/01 02:08:09;;;;;;;4.70;3.40;;;22.50;59.20;;;;;;4997614;28;20202;-47
2023/09/01 02:10:34;;;;;;;2.60;2.40;;;22.50;59.90;;;;;;5011376;28;21029;-47
2023/09/01 02:13:01;;;;;;;5.87;2.47;;;22.60;59.30;;;;;;5011534;28;20248;-49
2023/09/01 02:15:26;;;;;;;4.13;2.60;;;22.60;59.50;;;;;;5010401;28;20200;-49
2023/09/01 02:17:52;;;;;;;5.33;2.50;;;22.60;59.30;;;;;;5008613;28;20445;-47
2023/09/01 02:20:18;;;;;;;6.60;2.13;;;22.60;58.90;;;;;;5008948;28;20225;-51
2023/09/01 02:22:48;;;;;;;2.90;2.20;;;22.60;58.60;;;;;;5011292;28;20573;-49
2023/09/01 02:25:14;;;;;;;5.53;2.60;;;22.40;58.90;;;;;;5007674;28;20217;-47
2023/09/01 02:27:41;;;;;;;6.83;2.70;;;22.30;58.70;;;;;;5004325;28;20480;-46
2023/09/01 02:30:08;;;;;;;4.83;2.80;;;22.30;58.70;;;;;;5007843;28;20193;-44
2023/09/01 02:32:34;;;;;;;10.53;2.87;;;22.20;59.20;;;;;;5009838;28;20472;-45
2023/09/01 02:35:00;;;;;;;4.33;2.40;;;22.20;59.50;;;;;;5011582;28;20839;-46
2023/09/01 02:37:26;;;;;;;3.20;2.63;;;22.00;59.70;;;;;;5011299;28;20552;-46
2023/09/01 02:39:52;;;;;;;3.17;2.90;;;22.00;59.70;;;;;;5009002;28;20269;-45
2023/09/01 02:42:17;;;;;;;3.80;2.60;;;22.10;59.80;;;;;;5005005;28;20877;-52
2023/09/01 02:44:43;;;;;;;3.37;2.10;;;22.20;59.90;;;;;;5000521;28;20272;-48
2023/09/01 02:47:09;;;;;;;3.90;2.70;;;22.20;59.80;;;;;;5008340;28;20212;-49
2023/09/01 02:49:34;;;;;;;2.90;2.60;;;22.30;59.90;;;;;;4999235;28;20198;-47
2023/09/01 02:52:01;;;;;;;4.33;2.60;;;22.20;59.80;;;;;;5007569;28;20229;-45
2023/09/01 02:54:27;;;;;;;3.00;2.70;;;22.30;60.00;;;;;;5009607;28;20281;-50
2023/09/01 02:56:53;;;;;;;4.50;2.77;;;22.10;60.30;;;;;;5007233;28;20433;-47
2023/09/01 02:59:18;;;;;;;4.17;2.57;;;22.00;60.80;;;;;;5000597;28;20520;-46
2023/09/01 03:01:44;;;;;;;4.03;2.50;;;21.90;61.20;;;;;;5007319;28;20550;-48
2023/09/01 03:04:09;;;;;;;7.17;2.80;;;22.00;61.10;;;;;;5007708;28;20197;-51
2023/09/01 03:06:35;;;;;;;3.60;2.90;;;22.10;60.70;;;;;;5007166;28;20198;-51
2023/09/01 03:09:02;;;;;;;4.67;3.20;;;22.20;60.50;;;;;;5005512;28;20264;-45
2023/09/01 03:11:28;;;;;;;4.80;2.57;;;22.20;60.30;;;;;;5006181;28;20247;-49
2023/09/01 03:13:53;;;;;;;3.10;2.60;;;22.30;60.30;;;;;;5009898;28;20508;-48
2023/09/01 03:16:19;;;;;;;3.40;2.60;;;22.30;60.10;;;;;;5006982;28;20665;-46
2023/09/01 03:18:45;;;;;;;4.70;2.60;;;22.30;59.70;;;;;;5003565;28;20673;-47
2023/09/01 03:21:12;;;;;;;4.53;2.63;;;22.30;59.90;;;;;;5008409;28;20194;-50
2023/09/01 03:23:38;;;;;;;2.40;2.20;;;22.30;60.20;;;;;;5002933;28;20276;-46
2023/09/01 03:26:05;;;;;;;3.60;2.03;;;22.30;60.30;;;;;;5003241;28;20452;-48
2023/09/01 03:28:34;;;;;;;2.83;2.17;;;22.30;60.10;;;;;;5005603;28;20441;-50
2023/09/01 03:30:59;;;;;;;2.70;2.20;;;22.40;60.10;;;;;;5007345;28;21059;-45
2023/09/01 03:33:27;;;;;;;1.90;1.70;;;22.40;60.00;;;;;;5013175;28;20472;-46
2023/09/01 03:35:52;;;;;;;2.27;2.00;;;22.40;59.80;;;;;;5012583;28;20297;-50
2023/09/01 03:38:18;;;;;;;1.87;1.77;;;22.40;59.60;;;;;;5010257;28;21054;-50
2023/09/01 03:40:44;;;;;;;3.73;1.93;;;22.40;59.50;;;;;;5010854;28;20368;-48
2023/09/01 03:43:09;;;;;;;2.33;1.83;;;22.30;59.90;;;;;;5012562;28;20205;-48
2023/09/01 03:45:35;;;;;;;5.87;2.27;;;22.10;60.20;;;;;;5006136;28;20727;-46
2023/09/01 03:48:01;;;;;;;5.20;2.27;;;22.10;60.50;;;;;;5010903;28;20221;-49
2023/09/01 03:50:26;;;;;;;2.47;2.10;;;22.20;60.30;;;;;;5005844;28;20233;-49
2023/09/01 03:52:52;;;;;;;2.57;1.90;;;22.30;60.30;;;;;;5008864;28;20559;-47
2023/09/01 03:55:17;;;;;;;4.00;1.97;;;22.20;59.90;;;;;;5006565;28;20190;-50
2023/09/01 03:57:43;;;;;;;9.63;2.63;;;22.30;60.00;;;;;;5010328;28;20198;-46
2023/09/01 04:00:11;;;;;;;5.83;1.93;;;22.20;60.50;;;;;;5008067;28;20228;-47
2023/09/01 04:02:37;;;;;;;3.33;2.20;;;22.10;60.50;;;;;;5012198;28;20447;-49
2023/09/01 04:05:03;;;;;;;6.80;2.13;;;22.10;60.70;;;;;;5007202;28;20444;-48
2023/09/01 04:07:29;;;;;;;3.50;2.13;;;22.10;60.60;;;;;;5007612;28;20198;-44
2023/09/01 04:09:56;;;;;;;1.90;1.80;;;21.90;60.80;;;;;;5008191;28;20428;-48
2023/09/01 04:12:22;;;;;;;6.23;1.97;;;21.90;61.20;;;;;;5012379;28;20527;-47
2023/09/01 04:14:47;;;;;;;3.00;1.90;;;21.90;61.20;;;;;;5011080;28;20860;-48
2023/09/01 04:17:13;;;;;;;3.23;2.03;;;21.70;62.00;;;;;;5002540;28;20352;-45
2023/09/01 04:19:38;;;;;;;3.53;2.20;;;21.70;62.10;;;;;;5006835;28;20296;-47
2023/09/01 04:22:04;;;;;;;3.07;2.23;;;21.80;61.80;;;;;;5011518;28;20361;-48
2023/09/01 04:24:29;;;;;;;5.90;2.13;;;21.60;62.30;;;;;;5012177;28;20194;-46
2023/09/01 04:26:55;;;;;;;3.33;1.80;;;21.70;62.40;;;;;;5010792;28;20623;-46
2023/09/01 04:29:21;;;;;;;2.50;2.30;;;21.70;62.20;;;;;;5007391;28;20194;-45
2023/09/01 04:31:47;;;;;;;2.33;1.73;;;21.60;62.30;;;;;;5004650;28;20194;-45
2023/09/01 04:34:13;;;;;;;2.53;1.90;;;21.60;62.40;;;;;;5001141;28;20233;-45
2023/09/01 04:36:39;;;;;;;2.40;2.20;;;21.80;62.00;;;;;;5005913;28;20432;-47
2023/09/01 04:39:04;;;;;;;1.70;1.60;;;21.80;62.20;;;;;;5007943;28;20237;-47
2023/09/01 04:41:32;;;;;;;10.53;2.40;;;21.90;61.80;;;;;;5010491;28;20194;-45
2023/09/01 04:43:58;;;;;;;3.27;2.20;;;22.00;61.40;;;;;;5005211;28;20248;-47
2023/09/01 04:46:23;;;;;;;3.00;1.90;;;22.10;61.50;;;;;;5000191;28;20445;-46
2023/09/01 04:48:49;;;;;;;3.43;2.20;;;22.20;61.20;;;;;;5003769;28;20444;-48
2023/09/01 04:51:15;;;;;;;9.43;2.30;;;22.20;60.90;;;;;;5006872;28;20305;-50
2023/09/01 04:53:41;;;;;;;7.60;2.57;;;22.20;61.00;;;;;;5005530;28;20198;-47
2023/09/01 04:56:06;;;;;;;4.80;2.20;;;22.20;61.00;;;;;;5012441;28;20197;-46
2023/09/01 04:58:32;;;;;;;3.07;1.67;;;22.40;60.90;;;;;;5007555;28;20444;-49
2023/09/01 05:00:58;;;;;;;3.33;1.90;;;22.40;60.50;;;;;;5006291;28;20194;-48
2023/09/01 05:03:23;;;;;;;2.93;1.80;;;22.50;60.30;;;;;;5009492;28;20704;-48
2023/09/01 05:05:50;;;;;;;6.40;2.27;;;22.50;60.20;;;;;;5002025;28;20194;-46
2023/09/01 05:08:17;;;;;;;4.00;1.97;;;22.50;60.30;;;;;;5008624;28;20198;-45
2023/09/01 05:10:42;;;;;;;3.70;2.17;;;22.50;60.00;;;;;;5003656;28;20464;-46
2023/09/01 05:13:08;;;;;;;5.23;2.33;;;22.40;59.90;;;;;;5011934;28;20437;-46
2023/09/01 05:15:35;;;;;;;5.53;2.83;;;22.30;60.10;;;;;;5011425;28;20264;-46
2023/09/01 05:18:00;;;;;;;2.50;2.07;;;22.40;60.10;;;;;;5008689;28;20868;-45
2023/09/01 05:20:26;;;;;;;5.40;2.40;;;22.50;60.10;;;;;;5009369;28;20547;-48
2023/09/01 05:22:54;;;;;;;4.50;2.63;;;22.50;59.90;;;;;;5012828;28;20194;-47
2023/09/01 05:25:20;;;;;;;5.70;2.03;;;22.60;59.60;;;;;;5008274;28;20701;-48
2023/09/01 05:27:46;;;;;;;2.53;2.00;;;22.60;59.40;;;;;;5010347;28;20460;-46
2023/09/01 05:30:13;;;;;;;3.13;2.10;;;22.60;59.30;;;;;;5007988;28;20194;-46
2023/09/01 05:32:39;;;;;;;4.97;1.97;;;22.70;59.40;;;;;;5009966;28;20798;-48
2023/09/01 05:35:05;;;;;;;2.07;1.43;;;22.80;59.40;;;;;;5009372;28;20449;-46
2023/09/01 05:37:31;;;;;;;2.97;1.80;;;22.80;59.40;;;;;;5006081;28;20510;-46
2023/09/01 05:39:57;;;;;;;3.33;1.60;;;22.80;59.40;;;;;;4989192;28;20516;-48
2023/09/01 05:42:22;;;;;;;2.10;1.97;;;22.80;59.60;;;;;;5004700;28;20236;-45
2023/09/01 05:44:48;;;;;;;2.33;1.80;;;22.90;59.60;;;;;;5008187;28;20197;-45
2023/09/01 05:47:14;;;;;;;5.13;1.87;;;22.90;59.90;;;;;;4991067;28;20909;-45
2023/09/01 05:49:39;;;;;;;2.10;1.90;;;22.80;60.10;;;;;;5005066;28;20197;-45
2023/09/01 05:52:12;;;;;;;3.20;2.10;;;22.90;60.10;;;;;;5011132;28;20237;-45
2023/09/01 05:54:38;;;;;;;1.80;1.70;;;22.90;60.00;;;;;;5011986;28;20197;-45
2023/09/01 05:57:04;;;;;;;2.70;1.90;;;23.00;60.20;;;;;;5000861;28;20940;-45
2023/09/01 05:59:29;;;;;;;2.30;1.40;;;23.00;60.40;;;;;;5005424;28;20229;-44
2023/09/01 06:01:55;;;;;;;4.50;1.70;;;23.00;60.50;;;;;;5010296;28;20244;-46
2023/09/01 06:04:20;;;;;;;5.30;1.77;;;22.90;60.70;;;;;;5003536;28;20277;-44
2023/09/01 06:06:46;;;;;;;1.93;1.57;;;22.90;61.00;;;;;;5004995;28;20264;-47
2023/09/01 06:09:12;;;;;;;1.73;1.60;;;22.80;61.70;;;;;;4997513;28;20201;-45
2023/09/01 06:11:37;;;;;;;3.20;1.50;;;22.40;62.70;;;;;;5004040;28;20606;-45
2023/09/01 06:14:03;;;;;;;1.90;1.80;;;22.40;63.10;;;;;;5010774;28;20630;-46
2023/09/01 06:16:29;;;;;;;4.37;2.00;;;22.50;63.10;;;;;;5011470;28;20232;-46
2023/09/01 06:18:57;;;;;;;3.00;1.83;;;22.40;63.30;;;;;;5008718;28;20555;-45
2023/09/01 06:21:23;;;;;;;2.07;1.83;;;22.30;63.80;;;;;;5005673;28;20602;-46
2023/09/01 06:23:48;;;;;;;2.07;1.50;;;22.40;63.80;;;;;;5008951;28;20499;-44
2023/09/01 06:26:17;;;;;;;3.00;1.50;;;22.50;63.40;;;;;;5008087;28;20305;-46
2023/09/01 06:28:44;;;;;;;2.73;1.80;;;22.60;63.20;;;;;;5003755;28;20201;-43
2023/09/01 06:31:09;;;;;;;2.60;1.80;;;22.60;63.20;;;;;;4999722;28;20473;-45
2023/09/01 06:33:36;;;;;;;3.60;1.60;;;22.70;63.40;;;;;;5007445;28;20480;-44
2023/09/01 06:36:02;;;;;;;2.97;1.70;;;22.70;63.70;;;;;;5007700;28;20190;-45
2023/09/01 06:38:28;;;;;;;1.83;1.70;;;22.70;63.70;;;;;;5000459;28;20473;-45
2023/09/01 06:40:53;;;;;;;2.53;2.00;;;22.70;63.90;;;;;;5000839;28;20535;-46
2023/09/01 06:43:19;;;;;;;1.77;1.60;;;22.70;63.90;;;;;;4999604;28;20202;-46
2023/09/01 06:45:45;;;;;;;1.93;1.73;;;22.70;64.10;;;;;;5003821;28;20197;-46
2023/09/01 06:48:10;;;;;;;1.50;1.40;;;22.70;64.20;;;;;;5011368;28;20229;-45
2023/09/01 06:50:38;;;;;;;4.23;1.87;;;22.70;64.30;;;;;;5009345;28;20634;-47
2023/09/01 06:53:07;;;;;;;2.80;1.60;;;22.70;64.40;;;;;;5007979;28;20201;-46
2023/09/01 06:55:32;;;;;;;2.07;1.63;;;22.70;65.00;;;;;;5010470;28;20451;-47
2023/09/01 06:57:58;;;;;;;2.13;1.53;;;22.40;65.60;;;;;;5009805;28;20433;-45
2023/09/01 07:00:23;;;;;;;4.10;1.90;;;22.00;68.30;;;;;;5008778;28;20229;-46
2023/09/01 07:02:49;;;;;;;1.50;1.40;;;21.90;69.50;;;;;;4982643;28;20194;-45
2023/09/01 07:05:17;;;;;;;1.87;1.70;;;22.00;69.20;;;;;;5012223;28;20186;-45
2023/09/01 07:07:43;;;;;;;2.97;1.90;;;22.20;68.50;;;;;;5012349;28;20674;-46
2023/09/01 07:10:09;;;;;;;2.50;1.77;;;22.30;68.10;;;;;;5000858;28;20576;-45
2023/09/01 07:12:35;;;;;;;2.27;1.70;;;22.40;67.80;;;;;;5010168;28;20904;-45
2023/09/01 07:15:02;;;;;;;3.40;1.80;;;22.50;67.80;;;;;;5006696;28;20194;-45
2023/09/01 07:17:28;;;;;;;1.93;1.70;;;22.50;68.00;;;;;;5006757;28;20288;-49
2023/09/01 07:19:53;;;;;;;2.30;1.70;;;22.50;68.40;;;;;;5008145;28;20571;-46
2023/09/01 07:22:19;;;;;;;7.50;1.73;;;22.50;68.50;;;;;;5006026;28;20190;-45
2023/09/01 07:24:45;;;;;;;1.87;1.40;;;22.50;68.50;;;;;;5015240;28;20692;-46
2023/09/01 07:27:10;;;;;;;1.80;1.57;;;22.10;70.30;;;;;;5014377;28;20204;-46
2023/09/01 07:29:36;;;;;;;2.03;1.80;;;22.10;71.50;;;;;;5012283;28;20194;-47
2023/09/01 07:32:05;;;;;;;4.03;1.30;;;22.00;71.40;;;;;;5013294;28;20243;-45
2023/09/01 07:34:32;;;;;;;1.57;1.47;;;22.10;71.80;;;;;;5012532;28;20680;-48
2023/09/01 07:36:57;;;;;;;4.23;1.83;;;22.20;71.40;;;;;;5011152;28;20870;-46
2023/09/01 07:39:23;;;;;;;1.40;1.27;;;22.20;71.80;;;;;;5010000;28;20603;-46
2023/09/01 07:41:48;;;;;;;2.10;1.60;;;22.20;71.80;;;;;;5009231;28;20193;-48
2023/09/01 07:44:16;;;;;;;3.27;1.93;;;22.30;71.70;;;;;;5014229;28;20541;-46
2023/09/01 07:46:45;;;;;;;1.60;1.50;;;22.20;71.70;;;;;;5015313;28;20202;-46
2023/09/01 07:49:11;;;;;;;1.83;1.70;;;22.10;72.30;;;;;;5003562;28;20440;-49
2023/09/01 07:51:38;;;;;;;2.50;1.50;;;22.10;72.80;;;;;;5012373;28;20568;-49
2023/09/01 07:54:04;;;;;;;1.97;1.73;;;22.10;73.30;;;;;;5013017;28;20571;-46
2023/09/01 07:56:31;;;;;;;1.50;1.40;;;22.20;73.20;;;;;;5011010;28;20441;-49
2023/09/01 07:58:57;;;;;;;4.83;1.33;;;22.20;73.10;;;;;;5007420;28;20476;-49
2023/09/01 08:01:22;;;;;;;2.47;1.60;;;22.10;74.20;;;;;;4996995;28;20450;-46
2023/09/01 08:03:48;;;;;;;2.97;1.40;;;22.20;74.20;;;;;;4996767;28;20245;-47
2023/09/01 08:06:13;;;;;;;2.47;1.67;;;22.30;73.90;;;;;;5007304;28;20556;-45
2023/09/01 08:08:39;;;;;;;2.13;1.60;;;22.30;74.80;;;;;;5011978;28;20194;-45
2023/09/01 08:11:04;;;;;;;3.10;1.20;;;22.30;75.70;;;;;;5006559;28;20200;-46
2023/09/01 08:13:30;;;;;;;1.50;1.40;;;22.10;75.90;;;;;;5008160;28;20240;-46
2023/09/01 08:15:55;;;;;;;1.90;1.80;;;22.20;76.90;;;;;;5003927;28;20193;-45
2023/09/01 08:18:21;;;;;;;3.00;1.40;;;22.50;76.40;;;;;;5003857;28;20203;-47
2023/09/01 08:20:47;;;;;;;2.47;1.97;;;22.60;73.70;;;;;;5008553;28;20242;-45
2023/09/01 08:23:13;;;;;;;4.03;2.20;;;22.60;73.80;;;;;;5010591;28;20712;-49
2023/09/01 08:25:38;;;;;;;4.57;1.83;;;22.80;72.10;;;;;;5014187;28;20487;-46
2023/09/01 08:28:04;;;;;;;1.73;1.40;;;22.80;71.60;;;;;;5013233;28;20252;-47
2023/09/01 08:30:30;;;;;;;3.13;1.90;;;23.00;71.70;;;;;;5011295;28;20197;-48
2023/09/01 08:32:56;;;;;;;2.30;1.70;;;23.10;70.70;;;;;;5013207;28;20441;-48
2023/09/01 08:35:21;;;;;;;1.60;1.50;;;23.20;70.10;;;;;;5012678;28;20569;-46
2023/09/01 08:37:47;;;;;;;1.43;1.33;;;23.30;69.60;;;;;;5011559;28;20278;-49
2023/09/01 08:40:13;;;;;;;2.57;1.70;;;23.10;70.40;;;;;;5012884;28;20229;-48
2023/09/01 08:42:47;;;;;;;2.60;1.33;;;23.00;71.00;;;;;;5008478;28;20514;-45
2023/09/01 08:45:17;;;;;;;1.60;1.50;;;23.20;70.40;;;;;;5013993;28;20277;-46
2023/09/01 08:47:45;;;;;;;1.53;1.43;;;23.30;70.30;;;;;;5013717;28;20433;-49
2023/09/01 08:50:11;;;;;;;1.70;1.30;;;23.50;70.20;;;;;;5011680;28;20540;-49
2023/09/01 08:52:38;;;;;;;3.53;1.87;;;23.50;70.70;;;;;;5009898;28;20469;-48
2023/09/01 08:55:05;;;;;;;1.70;1.60;;;23.40;71.80;;;;;;5014398;28;20433;-49
2023/09/01 08:57:31;;;;;;;2.10;1.43;;;23.60;71.50;;;;;;5006725;28;20444;-49
2023/09/01 08:59:57;;;;;;;3.80;1.47;;;23.50;71.70;;;;;;5007484;28;20542;-50
2023/09/01 09:02:23;;;;;;;1.33;1.23;;;23.50;71.90;;;;;;5007671;28;20452;-48
2023/09/01 09:04:49;;;;;;;2.13;1.53;;;23.70;71.50;;;;;;5010170;28;20247;-49
2023/09/01 09:07:16;;;;;;;1.40;1.30;;;23.60;70.70;;;;;;5008598;28;21082;-47
2023/09/01 09:10:00;;;;;;;2.43;1.80;;;23.80;70.00;;;;;;5006772;28;20491;-49
2023/09/01 09:12:41;;;;;;;1.40;1.30;;;24.00;69.00;;;;;;4999758;28;20960;-49
2023/09/01 09:15:08;;;;;;;2.00;1.23;;;23.80;69.90;;;;;;5012507;28;20484;-48
2023/09/01 09:17:44;;;;;;;3.67;1.90;;;23.80;70.40;;;;;;5009187;28;20445;-46
2023/09/01 09:20:11;;;;;;;1.83;1.57;;;24.00;69.70;;;;;;5010168;28;20488;-50
2023/09/01 09:22:54;;;;;;;5.13;1.50;;;24.00;69.00;;;;;;5003028;28;20448;-46
2023/09/01 09:25:30;;;;;;;2.03;1.40;;;24.30;68.50;;;;;;5002532;28;20499;-47
2023/09/01 09:28:01;;;;;;;1.50;1.40;;;24.40;68.70;;;;;;5006550;28;20878;-45
2023/09/01 09:30:28;;;;;;;1.43;1.33;;;24.40;70.20;;;;;;5000637;28;22760;-47
2023/09/01 09:33:04;;;;;;;1.70;1.60;;;24.50;69.10;;;;;;5000770;28;20495;-45
2023/09/01 09:35:32;;;;;;;3.20;1.10;;;24.60;69.60;;;;;;5003100;28;20514;-46
2023/09/01 09:37:59;;;;;;;1.27;1.23;;;24.60;69.00;;;;;;5010156;28;20456;-47
2023/09/01 09:40:25;;;;;;;4.97;1.17;;;24.80;70.70;;;;;;5002881;28;20567;-46
2023/09/01 09:42:51;;;;;;;2.20;1.00;;;25.00;69.00;;;;;;5007766;28;20572;-48
2023/09/01 09:45:28;;;;;;;1.10;1.10;;;25.10;67.10;;;;;;5007124;28;20193;-47
2023/09/01 09:47:59;;;;;;;1.30;1.20;;;25.30;67.10;;;;;;5010308;28;20205;-48
2023/09/01 09:50:25;;;;;;;2.80;1.30;;;25.50;65.30;;;;;;5010453;28;20511;-47
2023/09/01 09:52:59;;;;;;;1.50;1.40;;;25.70;63.80;;;;;;5007925;28;20437;-44
2023/09/01 09:55:30;;;;;;;4.50;1.37;;;25.70;63.70;;;;;;5006444;28;20482;-45
2023/09/01 09:58:07;;;;;;;3.73;1.70;;;25.70;63.10;;;;;;5003544;28;20452;-49
2023/09/01 10:00:39;;;;;;;1.47;1.20;;;25.70;62.60;;;;;;5001706;28;20484;-46
2023/09/01 10:03:06;;;;;;;2.17;1.60;;;25.40;62.60;;;;;;5003798;28;20484;-46
2023/09/01 10:05:33;;;;;;;1.53;1.40;;;25.20;62.90;;;;;;5006678;28;20448;-47
2023/09/01 10:08:04;;;;;;;3.00;1.80;;;25.20;64.10;;;;;;5005637;28;20444;-45
2023/09/01 10:10:34;;;;;;;3.63;2.00;;;25.30;64.70;;;;;;5009004;28;20507;-50
2023/09/01 10:13:07;;;;;;;1.60;1.23;;;25.30;65.30;;;;;;5011971;28;20433;-48
2023/09/01 10:15:37;;;;;;;2.40;1.27;;;25.40;64.60;;;;;;5006733;28;20494;-45
2023/09/01 10:18:04;;;;;;;2.30;1.23;;;25.20;65.40;;;;;;5009597;28;20445;-44
2023/09/01 10:20:39;;;;;;;3.00;1.77;;;25.10;66.60;;;;;;5002716;28;20496;-45
2023/09/01 10:23:07;;;;;;;2.30;1.37;;;25.00;68.30;;;;;;5008754;28;20472;-46
2023/09/01 10:25:34;;;;;;;3.00;1.60;;;25.10;67.90;;;;;;5007956;28;20448;-45
2023/09/01 10:28:10;;;;;;;2.47;1.33;;;25.00;66.60;;;;;;5005853;28;20640;-46
2023/09/01 10:30:38;;;;;;;4.03;1.43;;;25.00;65.90;;;;;;5006815;28;20838;-45
2023/09/01 10:33:09;;;;;;;2.83;1.40;;;25.10;66.70;;;;;;5004989;28;20453;-47
2023/09/01 10:35:47;;;;;;;1.60;1.33;;;25.00;66.50;;;;;;5002844;28;20571;-45
2023/09/01 10:38:17;;;;;;;1.43;1.20;;;25.00;66.40;;;;;;5008867;28;20444;-47
2023/09/01 10:40:51;;;;;;;2.80;1.50;;;24.80;67.20;;;;;;5001748;28;20503;-44
2023/09/01 10:43:41;;;;;;;1.33;1.23;;;24.90;67.30;;;;;;5004791;28;20464;-45
2023/09/01 10:46:12;;;;;;;1.33;1.23;;;25.00;66.30;;;;;;4995445;28;20865;-45
2023/09/01 10:49:00;;;;;;;2.53;1.57;;;24.90;66.60;;;;;;5007397;28;20499;-47
2023/09/01 10:51:40;;;;;;;2.97;1.40;;;25.10;66.20;;;;;;5007611;28;20488;-48
2023/09/01 10:54:14;;;;;;;1.40;1.30;;;25.20;64.80;;;;;;5007288;28;20491;-49
2023/09/01 10:56:56;;;;;;;2.20;1.40;;;25.20;64.50;;;;;;5007841;28;21359;-47
2023/09/01 10:59:31;;;;;;;2.73;1.50;;;25.30;64.90;;;;;;4997805;28;20568;-45
2023/09/01 11:02:20;;;;;;;2.80;1.63;;;25.50;65.90;;;;;;5005146;28;20445;-46
2023/09/01 11:04:46;;;;;;;1.43;1.20;;;25.60;65.90;;;;;;5010464;28;20455;-44
2023/09/01 11:07:13;;;;;;;1.53;1.20;;;25.70;65.50;;;;;;5010416;28;20516;-45
2023/09/01 11:09:44;;;;;;;1.63;1.53;;;25.80;66.30;;;;;;5008608;28;20499;-47
2023/09/01 11:12:13;;;;;;;1.37;1.27;;;25.90;64.60;;;;;;5010233;28;20851;-46
2023/09/01 11:14:57;;;;;;;1.50;1.40;;;25.90;64.10;;;;;;5011780;28;20506;-46
2023/09/01 11:17:44;;;;;;;1.90;1.50;;;26.10;64.80;;;;;;5006822;28;20443;-45
2023/09/01 11:20:13;;;;;;;1.47;1.37;;;26.10;63.70;;;;;;5009990;28;20488;-45
2023/09/01 11:22:40;;;;;;;1.30;1.20;;;26.00;61.80;;;;;;5003541;28;20449;-48
2023/09/01 11:25:14;;;;;;;1.57;1.40;;;26.10;62.70;;;;;;5006970;28;20963;-45
2023/09/01 11:27:48;;;;;;;1.87;1.77;;;26.10;62.20;;;;;;4997028;28;20831;-48
2023/09/01 11:30:17;;;;;;;2.23;1.43;;;26.10;61.90;;;;;;5009114;28;20815;-47
2023/09/01 11:32:43;;;;;;;4.00;1.60;;;26.10;62.20;;;;;;5007733;28;20495;-46
2023/09/01 11:35:21;;;;;;;1.57;1.30;;;26.20;62.40;;;;;;5009203;28;20437;-47
2023/09/01 11:37:46;;;;;;;4.70;1.40;;;26.20;62.80;;;;;;5010514;28;20284;-49
2023/09/01 11:40:13;;;;;;;2.10;1.67;;;26.40;62.80;;;;;;4999928;28;20660;-47
2023/09/01 11:42:42;;;;;;;1.93;1.60;;;26.60;63.50;;;;;;5001878;28;20191;-46
2023/09/01 11:45:09;;;;;;;1.50;1.40;;;26.60;61.90;;;;;;5006185;28;20928;-45
2023/09/01 11:47:36;;;;;;;1.67;1.57;;;26.60;60.40;;;;;;4999239;28;20476;-48
2023/09/01 11:50:02;;;;;;;1.70;1.60;;;26.30;60.80;;;;;;5000571;28;20487;-45
2023/09/01 11:52:28;;;;;;;2.50;1.53;;;26.50;60.60;;;;;;5006962;28;20465;-45
2023/09/01 11:54:54;;;;;;;1.73;1.50;;;26.50;59.70;;;;;;5013513;28;20444;-46
2023/09/01 11:57:20;;;;;;;5.10;1.50;;;26.20;59.00;;;;;;5008247;28;20224;-47
2023/09/01 11:59:49;;;;;;;2.17;1.40;;;26.10;60.50;;;;;;5004324;28;20543;-45
2023/09/01 12:02:19;;;;;;;2.73;1.97;;;26.30;59.90;;;;;;5010816;28;20440;-46
2023/09/01 12:04:49;;;;;;;1.47;1.37;;;26.50;61.20;;;;;;5001098;28;20452;-49
2023/09/01 12:07:26;;;;;;;2.87;1.90;;;26.70;60.50;;;;;;5005996;28;20527;-45
2023/09/01 12:09:53;;;;;;;1.60;1.50;;;26.80;58.60;;;;;;5013788;28;20998;-45
2023/09/01 12:12:19;;;;;;;1.60;1.50;;;26.80;58.60;;;;;;5009750;28;20453;-46
2023/09/01 12:14:44;;;;;;;1.80;1.50;;;26.90;58.20;;;;;;5008655;28;20514;-46
2023/09/01 12:17:21;;;;;;;2.17;1.43;;;26.80;57.80;;;;;;5010475;28;20186;-50
2023/09/01 12:19:51;;;;;;;1.63;1.50;;;26.80;57.50;;;;;;5010199;28;20234;-47
2023/09/01 12:22:17;;;;;;;1.60;1.50;;;26.80;57.40;;;;;;5012222;28;20440;-45
2023/09/01 12:24:50;;;;;;;1.33;1.23;;;26.80;56.70;;;;;;5012194;28;20437;-46
2023/09/01 12:27:15;;;;;;;1.70;1.60;;;26.90;56.70;;;;;;5008931;28;20437;-47
2023/09/01 12:29:41;;;;;;;1.30;1.20;;;27.00;55.30;;;;;;5006226;28;20443;-45
2023/09/01 12:32:06;;;;;;;1.27;1.17;;;27.10;55.30;;;;;;5006033;28;20198;-45
2023/09/01 12:34:32;;;;;;;1.40;1.30;;;27.00;54.70;;;;;;5008650;28;20201;-46
2023/09/01 12:36:57;;;;;;;2.93;1.53;;;27.10;54.50;;;;;;5003292;28;20994;-46
2023/09/01 12:39:23;;;;;;;1.37;1.13;;;27.20;55.00;;;;;;5010559;28;20221;-45
2023/09/01 12:41:49;;;;;;;1.30;1.20;;;27.40;54.20;;;;;;5006550;28;20312;-47
2023/09/01 12:44:14;;;;;;;2.03;1.93;;;27.60;54.20;;;;;;5008515;28;20190;-46
2023/09/01 12:46:40;;;;;;;2.27;1.23;;;27.60;53.20;;;;;;5007957;28;20288;-48
2023/09/01 12:49:05;;;;;;;2.50;1.43;;;27.70;51.50;;;;;;5008923;28;20201;-49
2023/09/01 12:51:31;;;;;;;1.70;1.20;;;27.90;52.10;;;;;;5010609;28;20237;-46